SWA1873 KMCO-TNCM
Flight info
| Callsign | SWA1873 |
|---|---|
| Flight time | 2h 39m |
| Altitude | 39000 |
| Route | DDANY3 BORRD DCT ZFP DCT RENAH Y355 SLUGO |
| Aircraft | B738/M-SADE2E3GIJ4RWZ/LB1D1 |
Departure
| Time | 2026-05-05 17:56 |
|---|---|
| Airport | Orlando International Airport (KMCO) |
Arrival
| Time | 2026-05-05 20:35 |
|---|---|
| Airport | Princess Juliana International Airport (TNCM) |
| Time | Latitude | Longitude | Altitude | Speed | Heading |
|---|---|---|---|---|---|
| 2026-05-05 17:01 | 28.42613 | -81.30145 | 102 ft | 0 kts | 58° |
| 2026-05-05 17:43 | 28.42604 | -81.30160 | 102 ft | 2 kts | 58° |
| 2026-05-05 17:43 | 28.42596 | -81.30176 | 100 ft | 2 kts | 58° |
| 2026-05-05 17:43 | 28.42587 | -81.30192 | 100 ft | 2 kts | 59° |
| 2026-05-05 17:44 | 28.42579 | -81.30208 | 100 ft | 2 kts | 59° |
| 2026-05-05 17:44 | 28.42570 | -81.30224 | 101 ft | 2 kts | 59° |
| 2026-05-05 17:44 | 28.42562 | -81.30240 | 102 ft | 2 kts | 59° |
| 2026-05-05 17:44 | 28.42554 | -81.30256 | 100 ft | 2 kts | 60° |
| 2026-05-05 17:45 | 28.42546 | -81.30272 | 101 ft | 2 kts | 63° |
| 2026-05-05 17:45 | 28.42539 | -81.30289 | 101 ft | 2 kts | 75° |
| 2026-05-05 17:45 | 28.42538 | -81.30303 | 101 ft | 1 kts | 117° |
| 2026-05-05 17:45 | 28.42539 | -81.30303 | 101 ft | 0 kts | 117° |
| 2026-05-05 17:50 | 28.42537 | -81.30299 | 101 ft | 1 kts | 117° |
| 2026-05-05 17:50 | 28.42526 | -81.30277 | 100 ft | 6 kts | 118° |
| 2026-05-05 17:50 | 28.42496 | -81.30219 | 102 ft | 11 kts | 118° |
| 2026-05-05 17:50 | 28.42452 | -81.30150 | 102 ft | 11 kts | 147° |
| 2026-05-05 17:51 | 28.42379 | -81.30138 | 102 ft | 11 kts | 178° |
| 2026-05-05 17:51 | 28.42308 | -81.30124 | 102 ft | 10 kts | 151° |
| 2026-05-05 17:51 | 28.42278 | -81.30058 | 102 ft | 10 kts | 88° |
| 2026-05-05 17:51 | 28.42276 | -81.29980 | 103 ft | 10 kts | 91° |
| 2026-05-05 17:52 | 28.42276 | -81.29904 | 103 ft | 9 kts | 88° |
| 2026-05-05 17:52 | 28.42266 | -81.29832 | 92 ft | 9 kts | 117° |
| 2026-05-05 17:52 | 28.42214 | -81.29794 | 101 ft | 9 kts | 178° |
| 2026-05-05 17:52 | 28.42150 | -81.29795 | 101 ft | 9 kts | 184° |
| 2026-05-05 17:53 | 28.42086 | -81.29795 | 101 ft | 9 kts | 181° |
| 2026-05-05 17:53 | 28.42024 | -81.29799 | 101 ft | 9 kts | 175° |
| 2026-05-05 17:53 | 28.41946 | -81.29796 | 100 ft | 15 kts | 177° |
| 2026-05-05 17:53 | 28.41810 | -81.29789 | 101 ft | 24 kts | 179° |
| 2026-05-05 17:54 | 28.41619 | -81.29785 | 101 ft | 30 kts | 179° |
| 2026-05-05 17:54 | 28.41392 | -81.29781 | 100 ft | 34 kts | 181° |
| 2026-05-05 17:54 | 28.41155 | -81.29781 | 100 ft | 33 kts | 180° |
| 2026-05-05 17:54 | 28.40929 | -81.29777 | 99 ft | 31 kts | 180° |
| 2026-05-05 17:55 | 28.40823 | -81.29695 | 98 ft | 20 kts | 92° |
| 2026-05-05 17:55 | 28.40858 | -81.29561 | 96 ft | 19 kts | 10° |
| 2026-05-05 17:55 | 28.41073 | -81.29559 | 99 ft | 66 kts | 0° |
| 2026-05-05 17:55 | 28.41828 | -81.29560 | 104 ft | 149 kts | 359° |
| 2026-05-05 17:56 | 28.43065 | -81.29619 | 435 ft | 192 kts | 0° |
| 2026-05-05 17:56 | 28.44468 | -81.29711 | 1136 ft | 211 kts | 357° |
| 2026-05-05 17:56 | 28.45913 | -81.29902 | 1973 ft | 211 kts | 348° |
| 2026-05-05 17:56 | 28.47335 | -81.30545 | 2274 ft | 230 kts | 335° |
| 2026-05-05 17:57 | 28.48901 | -81.31077 | 2578 ft | 240 kts | 2° |
| 2026-05-05 17:57 | 28.50437 | -81.30442 | 3068 ft | 239 kts | 43° |
| 2026-05-05 17:57 | 28.51274 | -81.28842 | 3576 ft | 240 kts | 75° |
| 2026-05-05 17:57 | 28.51676 | -81.26985 | 4035 ft | 246 kts | 75° |
| 2026-05-05 17:58 | 28.52214 | -81.25133 | 4621 ft | 248 kts | 69° |
| 2026-05-05 17:58 | 28.52733 | -81.23195 | 4875 ft | 267 kts | 87° |
| 2026-05-05 17:58 | 28.52300 | -81.21161 | 4976 ft | 270 kts | 122° |
| 2026-05-05 17:58 | 28.51279 | -81.19383 | 4961 ft | 273 kts | 111° |
| 2026-05-05 17:59 | 28.51083 | -81.17280 | 5005 ft | 270 kts | 86° |
| 2026-05-05 17:59 | 28.50922 | -81.15152 | 5127 ft | 274 kts | 107° |
| 2026-05-05 17:59 | 28.50363 | -81.13060 | 5831 ft | 278 kts | 107° |
| 2026-05-05 17:59 | 28.49855 | -81.10923 | 6610 ft | 281 kts | 106° |
| 2026-05-05 18:00 | 28.49360 | -81.08759 | 7308 ft | 287 kts | 105° |
| 2026-05-05 18:00 | 28.48853 | -81.06536 | 8033 ft | 292 kts | 107° |
| 2026-05-05 18:00 | 28.47954 | -81.04480 | 8770 ft | 294 kts | 133° |
| 2026-05-05 18:00 | 28.46450 | -81.02908 | 9554 ft | 296 kts | 144° |
| 2026-05-05 18:01 | 28.44814 | -81.01433 | 10291 ft | 304 kts | 145° |
| 2026-05-05 18:01 | 28.43080 | -80.99897 | 10544 ft | 327 kts | 145° |
| 2026-05-05 18:01 | 28.41274 | -80.98287 | 11042 ft | 339 kts | 144° |
| 2026-05-05 18:01 | 28.39402 | -80.96603 | 11695 ft | 346 kts | 144° |
| 2026-05-05 18:02 | 28.37503 | -80.94881 | 12407 ft | 352 kts | 144° |
| 2026-05-05 18:02 | 28.35575 | -80.93127 | 13096 ft | 358 kts | 144° |
| 2026-05-05 18:02 | 28.33612 | -80.91339 | 13849 ft | 365 kts | 144° |
| 2026-05-05 18:02 | 28.31616 | -80.89520 | 14561 ft | 369 kts | 144° |
| 2026-05-05 18:03 | 28.29595 | -80.87685 | 15272 ft | 374 kts | 143° |
| 2026-05-05 18:03 | 28.27771 | -80.85546 | 15902 ft | 384 kts | 123° |
| 2026-05-05 18:03 | 28.26618 | -80.82802 | 16644 ft | 387 kts | 111° |
| 2026-05-05 18:03 | 28.25630 | -80.79947 | 17357 ft | 392 kts | 110° |
| 2026-05-05 18:04 | 28.24636 | -80.77037 | 18015 ft | 398 kts | 111° |
| 2026-05-05 18:04 | 28.23619 | -80.74133 | 18621 ft | 403 kts | 111° |
| 2026-05-05 18:04 | 28.22558 | -80.71169 | 19185 ft | 409 kts | 111° |
| 2026-05-05 18:04 | 28.21345 | -80.68232 | 19734 ft | 416 kts | 124° |
| 2026-05-05 18:05 | 28.19405 | -80.65802 | 20296 ft | 418 kts | 145° |
| 2026-05-05 18:05 | 28.17014 | -80.63909 | 20888 ft | 420 kts | 149° |
| 2026-05-05 18:05 | 28.14564 | -80.62085 | 21428 ft | 425 kts | 150° |
| 2026-05-05 18:05 | 28.12064 | -80.60236 | 21958 ft | 431 kts | 150° |
| 2026-05-05 18:06 | 28.09551 | -80.58359 | 22507 ft | 436 kts | 150° |
| 2026-05-05 18:06 | 28.08696 | -80.57716 | 22684 ft | 438 kts | 150° |
| 2026-05-05 18:06 | 28.04449 | -80.54487 | 23603 ft | 446 kts | 150° |
| 2026-05-05 18:06 | 28.01860 | -80.52505 | 24016 ft | 451 kts | 149° |
| 2026-05-05 18:07 | 27.99252 | -80.50505 | 24482 ft | 454 kts | 149° |
| 2026-05-05 18:07 | 27.96616 | -80.48485 | 24957 ft | 457 kts | 149° |
| 2026-05-05 18:07 | 27.94011 | -80.46496 | 25396 ft | 461 kts | 149° |
| 2026-05-05 18:07 | 27.91371 | -80.44401 | 25821 ft | 467 kts | 143° |
| 2026-05-05 18:08 | 27.89752 | -80.42719 | 26085 ft | 471 kts | 136° |
| 2026-05-05 18:08 | 27.87481 | -80.40018 | 26547 ft | 474 kts | 134° |
| 2026-05-05 18:08 | 27.84555 | -80.36327 | 27097 ft | 479 kts | 133° |
| 2026-05-05 18:08 | 27.82337 | -80.33503 | 27498 ft | 482 kts | 133° |
| 2026-05-05 18:09 | 27.80817 | -80.31583 | 27770 ft | 485 kts | 133° |
| 2026-05-05 18:09 | 27.78547 | -80.28750 | 28171 ft | 488 kts | 133° |
| 2026-05-05 18:09 | 27.76246 | -80.25915 | 28576 ft | 491 kts | 133° |
| 2026-05-05 18:09 | 27.73917 | -80.23074 | 28967 ft | 494 kts | 134° |
| 2026-05-05 18:10 | 27.71603 | -80.20266 | 29330 ft | 497 kts | 134° |
| 2026-05-05 18:10 | 27.69236 | -80.17403 | 29719 ft | 500 kts | 134° |
| 2026-05-05 18:10 | 27.66859 | -80.14531 | 30136 ft | 502 kts | 134° |
| 2026-05-05 18:10 | 27.64472 | -80.11649 | 30462 ft | 505 kts | 134° |
| 2026-05-05 18:11 | 27.62061 | -80.08737 | 30734 ft | 508 kts | 134° |
| 2026-05-05 18:11 | 27.59635 | -80.05808 | 31010 ft | 512 kts | 134° |
| 2026-05-05 18:11 | 27.57199 | -80.02867 | 31285 ft | 515 kts | 133° |
| 2026-05-05 18:11 | 27.54740 | -79.99900 | 31562 ft | 518 kts | 133° |
| 2026-05-05 18:12 | 27.52270 | -79.96923 | 31831 ft | 521 kts | 133° |
| 2026-05-05 18:12 | 27.49784 | -79.93927 | 32087 ft | 524 kts | 133° |
| 2026-05-05 18:12 | 27.47318 | -79.90958 | 32349 ft | 527 kts | 133° |
| 2026-05-05 18:12 | 27.44805 | -79.87935 | 32601 ft | 530 kts | 133° |
| 2026-05-05 18:13 | 27.42276 | -79.84893 | 32859 ft | 532 kts | 133° |
| 2026-05-05 18:13 | 27.39741 | -79.81849 | 33229 ft | 532 kts | 133° |
| 2026-05-05 18:13 | 27.37207 | -79.78806 | 33618 ft | 532 kts | 133° |
| 2026-05-05 18:13 | 27.34669 | -79.75763 | 33890 ft | 534 kts | 133° |
| 2026-05-05 18:14 | 27.32114 | -79.72700 | 34129 ft | 537 kts | 133° |
| 2026-05-05 18:14 | 27.29556 | -79.69636 | 34430 ft | 537 kts | 133° |
| 2026-05-05 18:14 | 27.27003 | -79.66580 | 34795 ft | 535 kts | 133° |
| 2026-05-05 18:14 | 27.24464 | -79.63543 | 35158 ft | 533 kts | 133° |
| 2026-05-05 18:15 | 27.21916 | -79.60498 | 35462 ft | 533 kts | 133° |
| 2026-05-05 18:15 | 27.19377 | -79.57466 | 35738 ft | 534 kts | 133° |
| 2026-05-05 18:15 | 27.16832 | -79.54428 | 36021 ft | 534 kts | 133° |
| 2026-05-05 18:15 | 27.14292 | -79.51399 | 36322 ft | 533 kts | 133° |
| 2026-05-05 18:16 | 27.11778 | -79.48401 | 36618 ft | 532 kts | 133° |
| 2026-05-05 18:16 | 27.09242 | -79.45381 | 36936 ft | 532 kts | 133° |
| 2026-05-05 18:16 | 27.06711 | -79.42369 | 37223 ft | 530 kts | 132° |
| 2026-05-05 18:16 | 27.04179 | -79.39358 | 37523 ft | 530 kts | 132° |
| 2026-05-05 18:17 | 27.01643 | -79.36344 | 37794 ft | 530 kts | 132° |
| 2026-05-05 18:17 | 26.99115 | -79.33341 | 38061 ft | 529 kts | 132° |
| 2026-05-05 18:17 | 26.96586 | -79.30340 | 38379 ft | 528 kts | 132° |
| 2026-05-05 18:17 | 26.94070 | -79.27355 | 38718 ft | 526 kts | 132° |
| 2026-05-05 18:18 | 26.91560 | -79.24380 | 39005 ft | 523 kts | 132° |
| 2026-05-05 18:18 | 26.86534 | -79.18429 | 39067 ft | 529 kts | 133° |
| 2026-05-05 18:19 | 26.81476 | -79.12447 | 39062 ft | 527 kts | 133° |
| 2026-05-05 18:19 | 26.76462 | -79.06526 | 39056 ft | 521 kts | 133° |
| 2026-05-05 18:20 | 26.71482 | -79.00653 | 39072 ft | 520 kts | 132° |
| 2026-05-05 18:20 | 26.66496 | -78.94778 | 39050 ft | 521 kts | 132° |
| 2026-05-05 18:21 | 26.61508 | -78.88907 | 39064 ft | 521 kts | 132° |
| 2026-05-05 18:21 | 26.56551 | -78.83081 | 39050 ft | 521 kts | 133° |
| 2026-05-05 18:22 | 26.51938 | -78.76887 | 39054 ft | 516 kts | 118° |
| 2026-05-05 18:22 | 26.48904 | -78.69732 | 39079 ft | 507 kts | 105° |
| 2026-05-05 18:23 | 26.46394 | -78.62344 | 39061 ft | 509 kts | 105° |
| 2026-05-05 18:23 | 26.43855 | -78.54943 | 39054 ft | 511 kts | 105° |
| 2026-05-05 18:24 | 26.41265 | -78.47536 | 39057 ft | 513 kts | 106° |
| 2026-05-05 18:24 | 26.38646 | -78.40120 | 39052 ft | 514 kts | 106° |
| 2026-05-05 18:25 | 26.36030 | -78.32733 | 39049 ft | 515 kts | 106° |
| 2026-05-05 18:25 | 26.33396 | -78.25302 | 39052 ft | 515 kts | 106° |
| 2026-05-05 18:26 | 26.30759 | -78.17870 | 39049 ft | 515 kts | 106° |
| 2026-05-05 18:26 | 26.28118 | -78.10441 | 39046 ft | 514 kts | 106° |
| 2026-05-05 18:27 | 26.25497 | -78.03083 | 39045 ft | 514 kts | 106° |
| 2026-05-05 18:27 | 26.22856 | -77.95682 | 39056 ft | 512 kts | 106° |
| 2026-05-05 18:28 | 26.18898 | -77.84617 | 39047 ft | 512 kts | 106° |
| 2026-05-05 18:28 | 26.16260 | -77.77258 | 39034 ft | 512 kts | 106° |
| 2026-05-05 18:29 | 26.13619 | -77.69906 | 39035 ft | 511 kts | 106° |
| 2026-05-05 18:29 | 26.10989 | -77.62596 | 39046 ft | 511 kts | 106° |
| 2026-05-05 18:30 | 26.08338 | -77.55243 | 39041 ft | 512 kts | 107° |
| 2026-05-05 18:30 | 26.05679 | -77.47880 | 39043 ft | 513 kts | 107° |
| 2026-05-05 18:31 | 26.03013 | -77.40511 | 39044 ft | 514 kts | 107° |
| 2026-05-05 18:31 | 26.00339 | -77.33133 | 39015 ft | 515 kts | 107° |
| 2026-05-05 18:32 | 25.97653 | -77.25741 | 39041 ft | 516 kts | 107° |
| 2026-05-05 18:32 | 25.94962 | -77.18344 | 39034 ft | 517 kts | 107° |
| 2026-05-05 18:33 | 25.92281 | -77.10991 | 39046 ft | 517 kts | 107° |
| 2026-05-05 18:33 | 25.89577 | -77.03590 | 39034 ft | 517 kts | 107° |
| 2026-05-05 18:34 | 25.86868 | -76.96187 | 39038 ft | 517 kts | 107° |
| 2026-05-05 18:34 | 25.84160 | -76.88800 | 39034 ft | 517 kts | 107° |
| 2026-05-05 18:35 | 25.81443 | -76.81400 | 39038 ft | 517 kts | 108° |
| 2026-05-05 18:35 | 25.78727 | -76.74019 | 39040 ft | 516 kts | 108° |
| 2026-05-05 18:36 | 25.76009 | -76.66645 | 39033 ft | 516 kts | 108° |
| 2026-05-05 18:36 | 25.73285 | -76.59270 | 39036 ft | 516 kts | 108° |
| 2026-05-05 18:37 | 25.70578 | -76.51951 | 39035 ft | 516 kts | 108° |
| 2026-05-05 18:37 | 25.67853 | -76.44601 | 39047 ft | 515 kts | 108° |
| 2026-05-05 18:38 | 25.65121 | -76.37242 | 39037 ft | 515 kts | 108° |
| 2026-05-05 18:38 | 25.62388 | -76.29894 | 39036 ft | 515 kts | 109° |
| 2026-05-05 18:39 | 25.59656 | -76.22562 | 39013 ft | 514 kts | 108° |
| 2026-05-05 18:39 | 25.56937 | -76.15278 | 39029 ft | 513 kts | 108° |
| 2026-05-05 18:40 | 25.54205 | -76.07971 | 39040 ft | 513 kts | 109° |
| 2026-05-05 18:40 | 25.51471 | -76.00673 | 39032 ft | 513 kts | 109° |
| 2026-05-05 18:41 | 25.48731 | -75.93374 | 39033 ft | 512 kts | 109° |
| 2026-05-05 18:41 | 25.45995 | -75.86096 | 39034 ft | 512 kts | 109° |
| 2026-05-05 18:42 | 25.43270 | -75.78860 | 39037 ft | 512 kts | 109° |
| 2026-05-05 18:42 | 25.40527 | -75.71591 | 39041 ft | 512 kts | 109° |
| 2026-05-05 18:43 | 25.37781 | -75.64325 | 39036 ft | 512 kts | 109° |
| 2026-05-05 18:43 | 25.35031 | -75.57061 | 39036 ft | 512 kts | 109° |
| 2026-05-05 18:44 | 25.32277 | -75.49798 | 39034 ft | 512 kts | 109° |
| 2026-05-05 18:44 | 25.29516 | -75.42532 | 39044 ft | 512 kts | 109° |
| 2026-05-05 18:45 | 25.26769 | -75.35315 | 39042 ft | 512 kts | 110° |
| 2026-05-05 18:45 | 25.24001 | -75.28054 | 39038 ft | 512 kts | 110° |
| 2026-05-05 18:46 | 25.21231 | -75.20802 | 39042 ft | 512 kts | 110° |
| 2026-05-05 18:46 | 25.18455 | -75.13545 | 39013 ft | 511 kts | 110° |
| 2026-05-05 18:47 | 25.15686 | -75.06320 | 39036 ft | 511 kts | 110° |
| 2026-05-05 18:47 | 25.12921 | -74.99117 | 39051 ft | 510 kts | 110° |
| 2026-05-05 18:48 | 25.10151 | -74.91914 | 39035 ft | 509 kts | 110° |
| 2026-05-05 18:48 | 25.07382 | -74.84727 | 39037 ft | 508 kts | 110° |
| 2026-05-05 18:49 | 25.04633 | -74.77603 | 39040 ft | 507 kts | 110° |
| 2026-05-05 18:49 | 25.01870 | -74.70453 | 39037 ft | 507 kts | 110° |
| 2026-05-05 18:50 | 24.99136 | -74.63392 | 39051 ft | 506 kts | 110° |
| 2026-05-05 18:50 | 24.96369 | -74.56257 | 39042 ft | 506 kts | 110° |
| 2026-05-05 18:51 | 24.93601 | -74.49130 | 39041 ft | 506 kts | 110° |
| 2026-05-05 18:51 | 24.90828 | -74.42001 | 39051 ft | 506 kts | 110° |
| 2026-05-05 18:52 | 24.88056 | -74.34888 | 39052 ft | 506 kts | 111° |
| 2026-05-05 18:52 | 24.85280 | -74.27777 | 39039 ft | 506 kts | 111° |
| 2026-05-05 18:53 | 24.82499 | -74.20667 | 39050 ft | 505 kts | 112° |
| 2026-05-05 18:53 | 24.79736 | -74.13611 | 39037 ft | 505 kts | 112° |
| 2026-05-05 18:54 | 24.77422 | -74.07712 | 39024 ft | 504 kts | 111° |
| 2026-05-05 18:54 | 24.74644 | -74.00641 | 39038 ft | 503 kts | 111° |
| 2026-05-05 18:55 | 24.71870 | -73.93588 | 39041 ft | 501 kts | 112° |
| 2026-05-05 18:55 | 24.69099 | -73.86557 | 39041 ft | 500 kts | 112° |
| 2026-05-05 18:56 | 24.66330 | -73.79541 | 39045 ft | 499 kts | 112° |
| 2026-05-05 18:56 | 24.63569 | -73.72554 | 39045 ft | 498 kts | 112° |
| 2026-05-05 18:57 | 24.60808 | -73.65575 | 39043 ft | 497 kts | 112° |
| 2026-05-05 18:57 | 24.58053 | -73.58623 | 39046 ft | 496 kts | 113° |
| 2026-05-05 18:58 | 24.55056 | -73.51816 | 39049 ft | 495 kts | 120° |
| 2026-05-05 18:58 | 24.51535 | -73.45380 | 39044 ft | 494 kts | 122° |
| 2026-05-05 18:59 | 24.47932 | -73.38938 | 39047 ft | 494 kts | 122° |
| 2026-05-05 18:59 | 24.44384 | -73.32475 | 39046 ft | 493 kts | 121° |
| 2026-05-05 19:00 | 24.40874 | -73.26009 | 39051 ft | 493 kts | 121° |
| 2026-05-05 19:00 | 24.37356 | -73.19518 | 39029 ft | 498 kts | 121° |
| 2026-05-05 19:01 | 24.33782 | -73.12939 | 39059 ft | 505 kts | 121° |
| 2026-05-05 19:01 | 24.30174 | -73.06311 | 39057 ft | 512 kts | 121° |
| 2026-05-05 19:02 | 24.26512 | -72.99592 | 39049 ft | 514 kts | 121° |
| 2026-05-05 19:02 | 24.22838 | -72.92862 | 39044 ft | 512 kts | 122° |
| 2026-05-05 19:03 | 24.19224 | -72.86250 | 39038 ft | 501 kts | 122° |
| 2026-05-05 19:03 | 24.15665 | -72.79749 | 39053 ft | 500 kts | 122° |
| 2026-05-05 19:04 | 24.12083 | -72.73215 | 39054 ft | 501 kts | 122° |
| 2026-05-05 19:04 | 24.08494 | -72.66675 | 39053 ft | 501 kts | 122° |
| 2026-05-05 19:05 | 24.04899 | -72.60133 | 39042 ft | 502 kts | 122° |
| 2026-05-05 19:05 | 24.01300 | -72.53590 | 39047 ft | 502 kts | 123° |
| 2026-05-05 19:06 | 23.97691 | -72.47037 | 39037 ft | 502 kts | 123° |
| 2026-05-05 19:06 | 23.94092 | -72.40505 | 39041 ft | 500 kts | 123° |
| 2026-05-05 19:07 | 23.90503 | -72.34007 | 39050 ft | 499 kts | 123° |
| 2026-05-05 19:07 | 23.86912 | -72.27526 | 39053 ft | 498 kts | 123° |
| 2026-05-05 19:08 | 23.83326 | -72.21055 | 39061 ft | 496 kts | 124° |
| 2026-05-05 19:08 | 23.79773 | -72.14645 | 39050 ft | 495 kts | 124° |
| 2026-05-05 19:09 | 23.76204 | -72.08212 | 39053 ft | 494 kts | 124° |
| 2026-05-05 19:09 | 23.72638 | -72.01794 | 39054 ft | 493 kts | 124° |
| 2026-05-05 19:10 | 23.69676 | -71.96467 | 39055 ft | 493 kts | 124° |
| 2026-05-05 19:10 | 23.65520 | -71.88997 | 39050 ft | 493 kts | 124° |
| 2026-05-05 19:11 | 23.61964 | -71.82617 | 39059 ft | 493 kts | 125° |
| 2026-05-05 19:11 | 23.58174 | -71.76470 | 39061 ft | 490 kts | 130° |
| 2026-05-05 19:12 | 23.54013 | -71.70587 | 39055 ft | 490 kts | 132° |
| 2026-05-05 19:12 | 23.49827 | -71.64710 | 39055 ft | 491 kts | 131° |
| 2026-05-05 19:13 | 23.45676 | -71.58783 | 39057 ft | 492 kts | 131° |
| 2026-05-05 19:13 | 23.41570 | -71.52875 | 39048 ft | 492 kts | 131° |
| 2026-05-05 19:14 | 23.37413 | -71.46891 | 39060 ft | 493 kts | 131° |
| 2026-05-05 19:14 | 23.33266 | -71.40933 | 39057 ft | 494 kts | 131° |
| 2026-05-05 19:15 | 23.29114 | -71.34978 | 39058 ft | 494 kts | 131° |
| 2026-05-05 19:15 | 23.24979 | -71.29056 | 39057 ft | 494 kts | 131° |
| 2026-05-05 19:16 | 23.20816 | -71.23100 | 39048 ft | 494 kts | 131° |
| 2026-05-05 19:16 | 23.16657 | -71.17155 | 39058 ft | 494 kts | 131° |
| 2026-05-05 19:17 | 23.12490 | -71.11208 | 39057 ft | 494 kts | 131° |
| 2026-05-05 19:17 | 23.08317 | -71.05257 | 39054 ft | 494 kts | 131° |
| 2026-05-05 19:18 | 23.04174 | -70.99354 | 39057 ft | 494 kts | 131° |
| 2026-05-05 19:18 | 22.99996 | -70.93408 | 39057 ft | 494 kts | 131° |
| 2026-05-05 19:19 | 22.95824 | -70.87472 | 39053 ft | 494 kts | 131° |
| 2026-05-05 19:19 | 22.91649 | -70.81545 | 39057 ft | 495 kts | 131° |
| 2026-05-05 19:20 | 22.87477 | -70.75649 | 39060 ft | 495 kts | 131° |
| 2026-05-05 19:20 | 22.83270 | -70.69707 | 39046 ft | 495 kts | 130° |
| 2026-05-05 19:21 | 22.79060 | -70.63762 | 39054 ft | 496 kts | 130° |
| 2026-05-05 19:21 | 22.74882 | -70.57865 | 39057 ft | 496 kts | 130° |
| 2026-05-05 19:22 | 22.70672 | -70.51929 | 39056 ft | 496 kts | 130° |
| 2026-05-05 19:22 | 22.66465 | -70.46002 | 39060 ft | 496 kts | 130° |
| 2026-05-05 19:23 | 22.62282 | -70.40118 | 39056 ft | 495 kts | 130° |
| 2026-05-05 19:23 | 22.58077 | -70.34208 | 39057 ft | 495 kts | 130° |
| 2026-05-05 19:24 | 22.53869 | -70.28300 | 39060 ft | 495 kts | 130° |
| 2026-05-05 19:24 | 22.49653 | -70.22388 | 39059 ft | 495 kts | 130° |
| 2026-05-05 19:25 | 22.45458 | -70.16510 | 39050 ft | 493 kts | 130° |
| 2026-05-05 19:25 | 22.41272 | -70.10650 | 39059 ft | 491 kts | 130° |
| 2026-05-05 19:26 | 22.37135 | -70.04864 | 39058 ft | 489 kts | 130° |
| 2026-05-05 19:26 | 22.32973 | -69.99050 | 39059 ft | 488 kts | 130° |
| 2026-05-05 19:27 | 22.28800 | -69.93277 | 39058 ft | 487 kts | 131° |
| 2026-05-05 19:27 | 22.24612 | -69.87529 | 39061 ft | 486 kts | 131° |
| 2026-05-05 19:28 | 22.20446 | -69.81780 | 39066 ft | 486 kts | 131° |
| 2026-05-05 19:28 | 22.16296 | -69.76017 | 39058 ft | 485 kts | 130° |
| 2026-05-05 19:29 | 22.12158 | -69.70270 | 39061 ft | 485 kts | 130° |
| 2026-05-05 19:29 | 22.08020 | -69.64531 | 39059 ft | 484 kts | 130° |
| 2026-05-05 19:30 | 22.03914 | -69.58843 | 39061 ft | 483 kts | 131° |
| 2026-05-05 19:30 | 21.99788 | -69.53136 | 39064 ft | 482 kts | 131° |
| 2026-05-05 19:31 | 21.95669 | -69.47444 | 39066 ft | 482 kts | 131° |
| 2026-05-05 19:31 | 21.91544 | -69.41751 | 39065 ft | 481 kts | 131° |
| 2026-05-05 19:32 | 21.87417 | -69.36059 | 39062 ft | 481 kts | 131° |
| 2026-05-05 19:32 | 21.83298 | -69.30385 | 39063 ft | 481 kts | 131° |
| 2026-05-05 19:33 | 21.79204 | -69.24752 | 39068 ft | 481 kts | 131° |
| 2026-05-05 19:33 | 21.75074 | -69.19074 | 39068 ft | 481 kts | 131° |
| 2026-05-05 19:34 | 21.70941 | -69.13399 | 39057 ft | 481 kts | 132° |
| 2026-05-05 19:35 | 21.64744 | -69.04899 | 39067 ft | 482 kts | 132° |
| 2026-05-05 19:35 | 21.60601 | -68.99225 | 39066 ft | 482 kts | 132° |
| 2026-05-05 19:36 | 21.56456 | -68.93554 | 39061 ft | 483 kts | 132° |
| 2026-05-05 19:36 | 21.52326 | -68.87908 | 39063 ft | 483 kts | 132° |
| 2026-05-05 19:37 | 21.48162 | -68.82223 | 39053 ft | 484 kts | 132° |
| 2026-05-05 19:37 | 21.44001 | -68.76546 | 39067 ft | 484 kts | 132° |
| 2026-05-05 19:38 | 21.39846 | -68.70885 | 39070 ft | 485 kts | 132° |
| 2026-05-05 19:38 | 21.35671 | -68.65201 | 39050 ft | 485 kts | 133° |
| 2026-05-05 19:39 | 21.31488 | -68.59513 | 39060 ft | 485 kts | 133° |
| 2026-05-05 19:39 | 21.28005 | -68.54780 | 39066 ft | 486 kts | 133° |
| 2026-05-05 19:40 | 21.23805 | -68.49079 | 39063 ft | 486 kts | 133° |
| 2026-05-05 19:40 | 21.19609 | -68.43390 | 39063 ft | 486 kts | 133° |
| 2026-05-05 19:41 | 21.15437 | -68.37739 | 39065 ft | 487 kts | 133° |
| 2026-05-05 19:41 | 21.11235 | -68.32051 | 39063 ft | 487 kts | 133° |
| 2026-05-05 19:42 | 21.07027 | -68.26362 | 39066 ft | 487 kts | 133° |
| 2026-05-05 19:42 | 21.02812 | -68.20669 | 39061 ft | 487 kts | 133° |
| 2026-05-05 19:43 | 20.98605 | -68.14990 | 39041 ft | 487 kts | 134° |
| 2026-05-05 19:43 | 20.94398 | -68.09317 | 39056 ft | 486 kts | 134° |
| 2026-05-05 19:44 | 20.90217 | -68.03682 | 39069 ft | 486 kts | 134° |
| 2026-05-05 19:44 | 20.85976 | -67.97975 | 39064 ft | 487 kts | 134° |
| 2026-05-05 19:45 | 20.81822 | -67.92306 | 39065 ft | 488 kts | 133° |
| 2026-05-05 19:45 | 20.77636 | -67.86544 | 39067 ft | 488 kts | 133° |
| 2026-05-05 19:46 | 20.74877 | -67.82748 | 39066 ft | 488 kts | 133° |
| 2026-05-05 19:46 | 20.70701 | -67.77016 | 39061 ft | 488 kts | 133° |
| 2026-05-05 19:47 | 20.65139 | -67.69400 | 39062 ft | 488 kts | 133° |
| 2026-05-05 19:47 | 20.60965 | -67.63690 | 39041 ft | 488 kts | 133° |
| 2026-05-05 19:48 | 20.56815 | -67.58018 | 39058 ft | 488 kts | 134° |
| 2026-05-05 19:48 | 20.52635 | -67.52310 | 39057 ft | 488 kts | 134° |
| 2026-05-05 19:49 | 20.48451 | -67.46600 | 39066 ft | 488 kts | 134° |
| 2026-05-05 19:49 | 20.44269 | -67.40897 | 39071 ft | 488 kts | 134° |
| 2026-05-05 19:50 | 20.40081 | -67.35193 | 39063 ft | 488 kts | 134° |
| 2026-05-05 19:50 | 20.35882 | -67.29488 | 39062 ft | 488 kts | 134° |
| 2026-05-05 19:51 | 20.31685 | -67.23795 | 39066 ft | 488 kts | 134° |
| 2026-05-05 19:51 | 20.27486 | -67.18095 | 39058 ft | 488 kts | 134° |
| 2026-05-05 19:52 | 20.23313 | -67.12434 | 39064 ft | 488 kts | 134° |
| 2026-05-05 19:52 | 20.19117 | -67.06745 | 39053 ft | 488 kts | 134° |
| 2026-05-05 19:53 | 20.14920 | -67.01060 | 39066 ft | 488 kts | 134° |
| 2026-05-05 19:53 | 20.10721 | -66.95377 | 39064 ft | 488 kts | 134° |
| 2026-05-05 19:54 | 20.06520 | -66.89696 | 39063 ft | 488 kts | 134° |
| 2026-05-05 19:54 | 20.02320 | -66.84019 | 39069 ft | 488 kts | 133° |
| 2026-05-05 19:55 | 19.98274 | -66.78194 | 39049 ft | 494 kts | 124° |
| 2026-05-05 19:55 | 19.95051 | -66.71783 | 39066 ft | 496 kts | 122° |
| 2026-05-05 19:56 | 19.91875 | -66.65257 | 39054 ft | 496 kts | 122° |
| 2026-05-05 19:56 | 19.88673 | -66.58766 | 39055 ft | 496 kts | 122° |
| 2026-05-05 19:57 | 19.85443 | -66.52299 | 39069 ft | 495 kts | 122° |
| 2026-05-05 19:57 | 19.82201 | -66.45838 | 39065 ft | 495 kts | 122° |
| 2026-05-05 19:58 | 19.78981 | -66.39426 | 39061 ft | 495 kts | 122° |
| 2026-05-05 19:58 | 19.75735 | -66.32964 | 39061 ft | 495 kts | 122° |
| 2026-05-05 19:59 | 19.72499 | -66.26528 | 39059 ft | 495 kts | 122° |
| 2026-05-05 19:59 | 19.69254 | -66.20081 | 39064 ft | 494 kts | 122° |
| 2026-05-05 20:00 | 19.66020 | -66.13663 | 39060 ft | 493 kts | 122° |
| 2026-05-05 20:00 | 19.62779 | -66.07238 | 39067 ft | 493 kts | 122° |
| 2026-05-05 20:01 | 19.59557 | -66.00858 | 39066 ft | 493 kts | 122° |
| 2026-05-05 20:01 | 19.56317 | -65.94450 | 39062 ft | 493 kts | 122° |
| 2026-05-05 20:02 | 19.53077 | -65.88048 | 39062 ft | 492 kts | 122° |
| 2026-05-05 20:02 | 19.49835 | -65.81649 | 39060 ft | 492 kts | 122° |
| 2026-05-05 20:03 | 19.46596 | -65.75262 | 39059 ft | 492 kts | 122° |
| 2026-05-05 20:03 | 19.43354 | -65.68877 | 39062 ft | 492 kts | 122° |
| 2026-05-05 20:04 | 19.40131 | -65.62534 | 39051 ft | 492 kts | 122° |
| 2026-05-05 20:04 | 19.36889 | -65.56159 | 39051 ft | 491 kts | 122° |
| 2026-05-05 20:05 | 19.33646 | -65.49786 | 39062 ft | 491 kts | 122° |
| 2026-05-05 20:05 | 19.30397 | -65.43411 | 39064 ft | 491 kts | 122° |
| 2026-05-05 20:06 | 19.27147 | -65.37058 | 39067 ft | 490 kts | 122° |
| 2026-05-05 20:06 | 19.23892 | -65.30705 | 39067 ft | 490 kts | 122° |
| 2026-05-05 20:07 | 19.20643 | -65.24361 | 39065 ft | 490 kts | 122° |
| 2026-05-05 20:07 | 19.17392 | -65.18013 | 39071 ft | 490 kts | 122° |
| 2026-05-05 20:07 | 19.15807 | -65.14916 | 39049 ft | 478 kts | 122° |
| 2026-05-05 20:08 | 19.14248 | -65.11868 | 38909 ft | 467 kts | 122° |
| 2026-05-05 20:08 | 19.12693 | -65.08836 | 38345 ft | 467 kts | 122° |
| 2026-05-05 20:08 | 19.11144 | -65.05819 | 37833 ft | 465 kts | 122° |
| 2026-05-05 20:08 | 19.09601 | -65.02817 | 37323 ft | 464 kts | 122° |
| 2026-05-05 20:09 | 19.08065 | -64.99829 | 36827 ft | 462 kts | 122° |
| 2026-05-05 20:09 | 19.06531 | -64.96849 | 36336 ft | 461 kts | 122° |
| 2026-05-05 20:09 | 19.05001 | -64.93875 | 35858 ft | 459 kts | 121° |
| 2026-05-05 20:09 | 19.03469 | -64.90898 | 35388 ft | 458 kts | 121° |
| 2026-05-05 20:10 | 19.01952 | -64.87952 | 34891 ft | 456 kts | 121° |
| 2026-05-05 20:10 | 19.00461 | -64.85057 | 34313 ft | 452 kts | 121° |
| 2026-05-05 20:10 | 18.98948 | -64.82120 | 33698 ft | 447 kts | 121° |
| 2026-05-05 20:10 | 18.97468 | -64.79248 | 33058 ft | 443 kts | 121° |
| 2026-05-05 20:11 | 18.96002 | -64.76405 | 32443 ft | 438 kts | 121° |
| 2026-05-05 20:11 | 18.94552 | -64.73595 | 31835 ft | 434 kts | 121° |
| 2026-05-05 20:11 | 18.93135 | -64.70850 | 31251 ft | 429 kts | 121° |
| 2026-05-05 20:11 | 18.91710 | -64.68094 | 30672 ft | 425 kts | 121° |
| 2026-05-05 20:12 | 18.90300 | -64.65365 | 30103 ft | 421 kts | 121° |
| 2026-05-05 20:12 | 18.88904 | -64.62665 | 29438 ft | 416 kts | 121° |
| 2026-05-05 20:12 | 18.87524 | -64.59996 | 28795 ft | 412 kts | 121° |
| 2026-05-05 20:12 | 18.86155 | -64.57351 | 28159 ft | 408 kts | 121° |
| 2026-05-05 20:13 | 18.84802 | -64.54738 | 27537 ft | 404 kts | 121° |
| 2026-05-05 20:13 | 18.83458 | -64.52144 | 26923 ft | 400 kts | 121° |
| 2026-05-05 20:13 | 18.82131 | -64.49583 | 26326 ft | 396 kts | 121° |
| 2026-05-05 20:13 | 18.80814 | -64.47043 | 25747 ft | 393 kts | 121° |
| 2026-05-05 20:14 | 18.79507 | -64.44523 | 25175 ft | 390 kts | 121° |
| 2026-05-05 20:14 | 18.78211 | -64.42025 | 24617 ft | 387 kts | 120° |
| 2026-05-05 20:14 | 18.76921 | -64.39539 | 24066 ft | 384 kts | 121° |
| 2026-05-05 20:14 | 18.75642 | -64.37076 | 23482 ft | 381 kts | 120° |
| 2026-05-05 20:15 | 18.74374 | -64.34636 | 22867 ft | 378 kts | 121° |
| 2026-05-05 20:15 | 18.73114 | -64.32212 | 22225 ft | 375 kts | 120° |
| 2026-05-05 20:15 | 18.71871 | -64.29823 | 21599 ft | 373 kts | 120° |
| 2026-05-05 20:15 | 18.70624 | -64.27424 | 20991 ft | 371 kts | 120° |
| 2026-05-05 20:16 | 18.69388 | -64.25048 | 20397 ft | 369 kts | 120° |
| 2026-05-05 20:16 | 18.68153 | -64.22677 | 19813 ft | 367 kts | 119° |
| 2026-05-05 20:16 | 18.66926 | -64.20320 | 19240 ft | 366 kts | 119° |
| 2026-05-05 20:16 | 18.65705 | -64.17974 | 18676 ft | 364 kts | 119° |
| 2026-05-05 20:17 | 18.64489 | -64.15642 | 18083 ft | 362 kts | 118° |
| 2026-05-05 20:17 | 18.63279 | -64.13319 | 17455 ft | 360 kts | 119° |
| 2026-05-05 20:17 | 18.62074 | -64.11007 | 16831 ft | 358 kts | 119° |
| 2026-05-05 20:17 | 18.60878 | -64.08713 | 16225 ft | 356 kts | 119° |
| 2026-05-05 20:18 | 18.59688 | -64.06432 | 15624 ft | 354 kts | 119° |
| 2026-05-05 20:18 | 18.58505 | -64.04167 | 15053 ft | 351 kts | 119° |
| 2026-05-05 20:18 | 18.57336 | -64.01927 | 14478 ft | 347 kts | 119° |
| 2026-05-05 20:18 | 18.56187 | -63.99726 | 14200 ft | 334 kts | 119° |
| 2026-05-05 20:19 | 18.55100 | -63.97645 | 13957 ft | 321 kts | 119° |
| 2026-05-05 20:19 | 18.54037 | -63.95612 | 13704 ft | 312 kts | 119° |
| 2026-05-05 20:19 | 18.53000 | -63.93628 | 13443 ft | 307 kts | 119° |
| 2026-05-05 20:19 | 18.51974 | -63.91667 | 13194 ft | 306 kts | 119° |
| 2026-05-05 20:20 | 18.50941 | -63.89693 | 12951 ft | 310 kts | 119° |
| 2026-05-05 20:20 | 18.49895 | -63.87695 | 12711 ft | 311 kts | 119° |
| 2026-05-05 20:20 | 18.48854 | -63.85706 | 12464 ft | 309 kts | 119° |
| 2026-05-05 20:20 | 18.47817 | -63.83726 | 12216 ft | 307 kts | 119° |
| 2026-05-05 20:21 | 18.47137 | -63.82426 | 12056 ft | 306 kts | 119° |
| 2026-05-05 20:21 | 18.45789 | -63.79852 | 11734 ft | 296 kts | 119° |
| 2026-05-05 20:21 | 18.44802 | -63.77967 | 11427 ft | 293 kts | 120° |
| 2026-05-05 20:21 | 18.43817 | -63.76087 | 11122 ft | 293 kts | 119° |
| 2026-05-05 20:22 | 18.42823 | -63.74189 | 10815 ft | 297 kts | 119° |
| 2026-05-05 20:22 | 18.42161 | -63.72926 | 10617 ft | 298 kts | 119° |
| 2026-05-05 20:22 | 18.41167 | -63.71032 | 10306 ft | 291 kts | 119° |
| 2026-05-05 20:22 | 18.40211 | -63.69211 | 10191 ft | 279 kts | 119° |
| 2026-05-05 20:23 | 18.39275 | -63.67432 | 10013 ft | 276 kts | 120° |
| 2026-05-05 20:23 | 18.38145 | -63.65807 | 9881 ft | 273 kts | 135° |
| 2026-05-05 20:23 | 18.36746 | -63.64409 | 9646 ft | 283 kts | 137° |
| 2026-05-05 20:23 | 18.35315 | -63.63024 | 9341 ft | 279 kts | 137° |
| 2026-05-05 20:24 | 18.33887 | -63.61642 | 9036 ft | 271 kts | 137° |
| 2026-05-05 20:24 | 18.32537 | -63.60327 | 8753 ft | 266 kts | 137° |
| 2026-05-05 20:24 | 18.31167 | -63.58986 | 8482 ft | 266 kts | 137° |
| 2026-05-05 20:24 | 18.29835 | -63.57675 | 8202 ft | 262 kts | 136° |
| 2026-05-05 20:25 | 18.28516 | -63.56372 | 7918 ft | 257 kts | 136° |
| 2026-05-05 20:25 | 18.27215 | -63.55084 | 7674 ft | 258 kts | 136° |
| 2026-05-05 20:25 | 18.25903 | -63.53784 | 7406 ft | 259 kts | 136° |
| 2026-05-05 20:25 | 18.24612 | -63.52503 | 7132 ft | 251 kts | 136° |
| 2026-05-05 20:26 | 18.23350 | -63.51252 | 6866 ft | 248 kts | 136° |
| 2026-05-05 20:26 | 18.22084 | -63.49995 | 6598 ft | 252 kts | 136° |
| 2026-05-05 20:26 | 18.20786 | -63.48705 | 6333 ft | 259 kts | 136° |
| 2026-05-05 20:26 | 18.19495 | -63.47422 | 6035 ft | 258 kts | 136° |
| 2026-05-05 20:27 | 18.18186 | -63.46123 | 5757 ft | 258 kts | 136° |
| 2026-05-05 20:27 | 18.16885 | -63.44831 | 5478 ft | 257 kts | 136° |
| 2026-05-05 20:27 | 18.15578 | -63.43534 | 5160 ft | 257 kts | 136° |
| 2026-05-05 20:27 | 18.14281 | -63.42246 | 4886 ft | 256 kts | 136° |
| 2026-05-05 20:28 | 18.12989 | -63.40963 | 4593 ft | 254 kts | 136° |
| 2026-05-05 20:28 | 18.11707 | -63.39692 | 4306 ft | 253 kts | 136° |
| 2026-05-05 20:28 | 18.10429 | -63.38423 | 4036 ft | 251 kts | 136° |
| 2026-05-05 20:28 | 18.09191 | -63.37195 | 3921 ft | 243 kts | 136° |
| 2026-05-05 20:29 | 18.07977 | -63.35989 | 3803 ft | 236 kts | 136° |
| 2026-05-05 20:29 | 18.06802 | -63.34825 | 3701 ft | 228 kts | 136° |
| 2026-05-05 20:29 | 18.05666 | -63.33700 | 3602 ft | 221 kts | 136° |
| 2026-05-05 20:29 | 18.04564 | -63.32609 | 3509 ft | 213 kts | 136° |
| 2026-05-05 20:30 | 18.03514 | -63.31571 | 3452 ft | 200 kts | 136° |
| 2026-05-05 20:30 | 18.02519 | -63.30588 | 3285 ft | 193 kts | 135° |
| 2026-05-05 20:30 | 18.01760 | -63.29507 | 3069 ft | 185 kts | 107° |
| 2026-05-05 20:30 | 18.01781 | -63.28189 | 2922 ft | 177 kts | 86° |
| 2026-05-05 20:31 | 18.01857 | -63.26922 | 2727 ft | 170 kts | 90° |
| 2026-05-05 20:31 | 18.01978 | -63.25716 | 2551 ft | 163 kts | 85° |
| 2026-05-05 20:31 | 18.02138 | -63.24559 | 2434 ft | 163 kts | 86° |
| 2026-05-05 20:31 | 18.02306 | -63.23379 | 2204 ft | 162 kts | 85° |
| 2026-05-05 20:32 | 18.02471 | -63.22230 | 2001 ft | 156 kts | 84° |
| 2026-05-05 20:32 | 18.02629 | -63.21127 | 1797 ft | 149 kts | 85° |
| 2026-05-05 20:32 | 18.02778 | -63.20080 | 1625 ft | 149 kts | 85° |
| 2026-05-05 20:32 | 18.02930 | -63.19017 | 1422 ft | 141 kts | 84° |
| 2026-05-05 20:33 | 18.03069 | -63.18043 | 1217 ft | 128 kts | 84° |
| 2026-05-05 20:33 | 18.03199 | -63.17136 | 1069 ft | 124 kts | 86° |
| 2026-05-05 20:33 | 18.03327 | -63.16243 | 918 ft | 124 kts | 86° |
| 2026-05-05 20:33 | 18.03457 | -63.15339 | 735 ft | 124 kts | 84° |
| 2026-05-05 20:34 | 18.03586 | -63.14435 | 581 ft | 126 kts | 84° |
| 2026-05-05 20:34 | 18.03717 | -63.13523 | 410 ft | 126 kts | 84° |
| 2026-05-05 20:34 | 18.03845 | -63.12612 | 220 ft | 125 kts | 85° |
| 2026-05-05 20:34 | 18.03980 | -63.11720 | 54 ft | 124 kts | 85° |
| 2026-05-05 20:35 | 18.04100 | -63.10820 | 28 ft | 125 kts | 83° |
| 2026-05-05 20:35 | 18.04186 | -63.10239 | 28 ft | 10 kts | 79° |
| 2026-05-05 20:35 | 18.04186 | -63.10169 | 26 ft | 13 kts | 94° |
| 2026-05-05 20:35 | 18.04202 | -63.10082 | 29 ft | 12 kts | 77° |
| 2026-05-05 20:36 | 18.04217 | -63.09999 | 28 ft | 12 kts | 76° |
| 2026-05-05 20:36 | 18.04252 | -63.09913 | 26 ft | 14 kts | 95° |
| 2026-05-05 20:36 | 18.04231 | -63.09897 | 30 ft | 5 kts | 238° |
| 2026-05-05 20:36 | 18.04226 | -63.09942 | 27 ft | 8 kts | 260° |
| 2026-05-05 20:37 | 18.04213 | -63.10012 | 26 ft | 12 kts | 263° |
| 2026-05-05 20:37 | 18.04201 | -63.10124 | 30 ft | 18 kts | 260° |
| 2026-05-05 20:37 | 18.04180 | -63.10273 | 26 ft | 23 kts | 263° |
| 2026-05-05 20:37 | 18.04155 | -63.10460 | 27 ft | 28 kts | 261° |
| 2026-05-05 20:38 | 18.04123 | -63.10670 | 26 ft | 31 kts | 261° |
| 2026-05-05 20:38 | 18.04091 | -63.10909 | 26 ft | 35 kts | 263° |
| 2026-05-05 20:38 | 18.04070 | -63.11134 | 27 ft | 19 kts | 295° |
| 2026-05-05 20:38 | 18.04162 | -63.11106 | 27 ft | 17 kts | 57° |
| 2026-05-05 20:39 | 18.04200 | -63.11102 | 28 ft | 7 kts | 347° |
| 2026-05-05 20:39 | 18.04231 | -63.11145 | 28 ft | 12 kts | 263° |
| 2026-05-05 20:39 | 18.04212 | -63.11273 | 28 ft | 21 kts | 262° |
| 2026-05-05 20:39 | 18.04266 | -63.11298 | 28 ft | 10 kts | 33° |
| 2026-05-05 20:40 | 18.04333 | -63.11295 | 28 ft | 10 kts | 352° |
| 2026-05-05 20:40 | 18.04350 | -63.11296 | 28 ft | 0 kts | 354° |